Time;durP1;ratioP1;P1;durP2;ratioP2;P2;SDS_P1;SDS_P2;PMS_P1;PMS_P2;Temp;Humidity;BMP_temperature;BMP_pressure;BME280_temperature;BME280_humidity;BME280_pressure;Samples;Min_cycle;Max_cycle;Signal;HPM_P1;HPM_P2
2021/06/29 00:02:23;;;;;;;;;1.00;1.00;;;;;23.31;48.45;100896.53;5097370;27;45625;-64
2021/06/29 00:04:50;;;;;;;;;1.25;1.25;;;;;23.31;48.60;100893.88;5097045;27;45514;-64
2021/06/29 00:07:15;;;;;;;;;1.25;1.25;;;;;23.30;48.17;100893.00;5097094;27;45247;-64
2021/06/29 00:09:41;;;;;;;;;1.50;1.50;;;;;23.29;48.50;100893.13;5097211;27;45299;-63
2021/06/29 00:12:07;;;;;;;;;3.00;1.00;;;;;23.29;48.49;100893.97;5097211;27;45516;-64
2021/06/29 00:14:32;;;;;;;;;2.75;2.00;;;;;23.29;48.59;100887.84;5096615;27;45309;-60
2021/06/29 00:16:57;;;;;;;;;2.50;2.00;;;;;23.29;48.43;100893.13;5099393;27;45248;-57
2021/06/29 00:19:23;;;;;;;;;2.00;2.00;;;;;23.27;48.30;100887.09;5100832;27;45223;-61
2021/06/29 00:21:49;;;;;;;;;1.00;1.00;;;;;23.27;48.37;100885.28;5100821;27;45508;-64
2021/06/29 00:24:14;;;;;;;;;1.00;1.00;;;;;23.26;48.69;100888.03;5100340;27;46301;-65
2021/06/29 00:26:41;;;;;;;;;2.00;2.00;;;;;23.28;48.23;100897.56;5100471;27;45661;-59
2021/06/29 00:29:06;;;;;;;;;2.00;2.00;;;;;23.25;48.65;100883.69;5100546;27;45405;-64
2021/06/29 00:31:31;;;;;;;;;1.25;1.25;;;;;23.27;48.62;100879.16;5100637;27;45351;-62
2021/06/29 00:33:57;;;;;;;;;2.75;2.00;;;;;23.27;48.17;100885.28;5100662;27;46547;-60
2021/06/29 00:36:22;;;;;;;;;1.75;1.00;;;;;23.26;48.61;100880.94;5100424;27;45462;-58
2021/06/29 00:38:48;;;;;;;;;3.00;3.00;;;;;23.25;48.55;100865.19;5100174;27;45308;-50
2021/06/29 00:41:13;;;;;;;;;1.50;1.50;;;;;23.24;48.63;100867.00;5100454;27;45582;-53
2021/06/29 00:43:45;;;;;;;;;3.25;2.00;;;;;23.25;48.44;100870.47;5100234;27;45963;-57
2021/06/29 00:46:10;;;;;;;;;1.00;1.00;;;;;23.28;48.72;100875.56;5100059;27;45532;-62
2021/06/29 00:48:36;;;;;;;;;1.50;1.50;;;;;23.26;48.51;100875.66;5100356;27;45461;-63
2021/06/29 00:51:01;;;;;;;;;3.50;2.50;;;;;23.27;48.36;100866.78;5100507;27;45443;-47
2021/06/29 00:53:27;;;;;;;;;3.00;3.00;;;;;23.27;48.46;100876.50;5100155;27;46197;-60
2021/06/29 00:55:52;;;;;;;;;2.00;2.00;;;;;23.25;48.57;100875.75;5100038;27;45448;-63
2021/06/29 00:58:19;;;;;;;;;2.00;1.25;;;;;23.25;48.58;100862.53;5100135;27;45310;-62
2021/06/29 01:00:44;;;;;;;;;2.00;2.00;;;;;23.26;48.48;100872.16;5100158;27;45561;-62
2021/06/29 01:03:09;;;;;;;;;1.75;1.75;;;;;23.25;48.51;100862.53;5099832;27;47235;-62
2021/06/29 01:05:35;;;;;;;;;2.00;2.00;;;;;23.25;48.78;100857.25;5099842;27;45319;-64
2021/06/29 01:08:00;;;;;;;;;1.50;1.25;;;;;23.24;48.65;100868.78;5100093;27;45429;-63
2021/06/29 01:10:27;;;;;;;;;1.75;1.75;;;;;23.24;48.53;100858.19;5100128;27;45379;-58
2021/06/29 01:12:53;;;;;;;;;2.00;2.00;;;;;23.22;48.58;100852.16;5099932;27;46112;-62
2021/06/29 01:15:23;;;;;;;;;1.00;1.00;;;;;23.24;48.49;100848.47;5099833;27;45208;-61
2021/06/29 01:17:56;;;;;;;;;1.50;1.00;;;;;23.24;48.71;100850.25;5099801;27;45458;-53
2021/06/29 01:20:28;;;;;;;;;2.25;2.00;;;;;23.23;48.69;100853.84;5099943;27;45495;-60
2021/06/29 01:23:03;;;;;;;;;2.00;1.00;;;;;23.23;49.02;100852.06;5099553;27;45422;-63
2021/06/29 01:25:30;;;;;;;;;2.75;1.25;;;;;23.21;48.88;100842.53;5099777;27;45655;-63
2021/06/29 01:28:21;;;;;;;;;1.00;1.00;;;;;23.20;48.49;100835.56;5098196;27;45323;-62
2021/06/29 01:31:02;;;;;;;;;3.25;1.75;;;;;23.17;48.55;100836.56;5099544;27;45615;-64
2021/06/29 01:33:27;;;;;;;;;1.25;1.25;;;;;23.16;48.89;100846.31;5097946;27;46990;-63
2021/06/29 01:35:52;;;;;;;;;1.00;1.00;;;;;23.17;48.88;100848.00;5099289;27;45361;-64
2021/06/29 01:38:20;;;;;;;;;3.00;2.00;;;;;23.17;48.68;100842.72;5099365;27;45762;-63
2021/06/29 01:40:45;;;;;;;;;2.50;2.00;;;;;23.15;48.93;100839.31;5099741;27;45523;-64
2021/06/29 01:43:12;;;;;;;;;2.00;1.25;;;;;23.15;48.74;100843.78;5132396;27;45997;-63
2021/06/29 01:45:37;;;;;;;;;2.00;2.00;;;;;23.14;49.03;100835.00;5099184;27;45713;-59
2021/06/29 01:48:05;;;;;;;;;2.00;2.00;;;;;23.14;48.77;100836.78;5099607;27;45371;-62
2021/06/29 01:50:30;;;;;;;;;0.00;0.00;;;;;23.13;48.98;100822.72;5099702;27;45566;-63
2021/06/29 01:52:58;;;;;;;;;1.25;1.25;;;;;23.12;48.95;100823.66;5098899;27;46187;-63
2021/06/29 01:55:24;;;;;;;;;2.00;2.00;;;;;23.10;48.87;100827.38;5098938;27;45721;-63
2021/06/29 01:57:50;;;;;;;;;2.00;2.00;;;;;23.08;49.10;100819.53;5099242;27;45902;-59
2021/06/29 02:00:17;;;;;;;;;1.00;1.00;;;;;23.09;48.78;100823.03;5099258;27;45530;-57
2021/06/29 02:02:43;;;;;;;;;4.00;2.25;;;;;23.09;48.61;100830.97;5098722;27;46448;-62
2021/06/29 02:05:09;;;;;;;;;1.25;1.25;;;;;23.06;48.96;100823.22;5098856;27;45361;-62
2021/06/29 02:07:34;;;;;;;;;1.25;1.25;;;;;23.06;48.75;100818.78;5099301;27;45284;-64
2021/06/29 02:10:00;;;;;;;;;2.00;2.00;;;;;23.06;48.74;100818.78;5099232;27;45443;-59
2021/06/29 02:12:25;;;;;;;;;1.75;1.75;;;;;23.05;48.84;100830.31;5098824;27;45318;-63
2021/06/29 02:14:51;;;;;;;;;1.75;1.75;;;;;23.04;49.12;100828.63;5098617;27;45396;-50
2021/06/29 02:17:16;;;;;;;;;1.25;1.25;;;;;23.04;49.17;100828.63;5098827;27;45398;-54
2021/06/29 02:19:41;;;;;;;;;3.00;2.00;;;;;23.05;48.89;100822.38;5098905;27;45528;-56
2021/06/29 02:22:07;;;;;;;;;3.00;1.50;;;;;23.06;49.06;100817.94;5098442;27;45382;-51
2021/06/29 02:24:33;;;;;;;;;2.50;2.00;;;;;23.05;48.90;100825.03;5098827;27;45348;-60
2021/06/29 02:26:59;;;;;;;;;1.25;1.25;;;;;23.03;48.91;100816.34;5098691;27;45345;-53
2021/06/29 02:29:25;;;;;;;;;4.00;2.00;;;;;23.01;49.06;100815.59;5098842;27;45631;-57
2021/06/29 02:31:51;;;;;;;;;1.00;1.00;;;;;23.02;48.73;100817.28;5098382;27;45402;-53
2021/06/29 02:34:17;;;;;;;;;3.25;2.00;;;;;23.03;48.81;100816.34;5098420;27;45244;-58
2021/06/29 02:36:42;;;;;;;;;1.75;1.75;;;;;23.01;49.04;100816.47;5098696;27;45238;-53
2021/06/29 02:39:07;;;;;;;;;2.00;2.00;;;;;23.02;48.94;100814.66;5096860;27;45381;-58
2021/06/29 02:41:33;;;;;;;;;2.00;2.00;;;;;23.01;49.00;100820.88;5097176;27;47059;-60
2021/06/29 02:43:58;;;;;;;;;1.25;1.25;;;;;22.99;48.85;100822.78;5098282;27;45265;-62
2021/06/29 02:46:23;;;;;;;;;2.00;2.00;;;;;22.99;48.70;100820.13;5098381;27;45357;-56
2021/06/29 02:48:49;;;;;;;;;2.00;2.00;;;;;22.98;48.97;100815.81;5098526;27;45240;-60
2021/06/29 02:51:15;;;;;;;;;2.75;2.75;;;;;22.97;49.18;100816.78;5097916;27;46811;-53
2021/06/29 02:53:40;;;;;;;;;2.50;2.00;;;;;22.95;49.01;100813.38;5096728;27;45383;-62
2021/06/29 02:56:05;;;;;;;;;1.75;1.75;;;;;22.95;49.10;100811.56;5098690;27;45478;-63
2021/06/29 02:58:31;;;;;;;;;2.00;2.00;;;;;22.95;49.22;100808.91;5098429;27;45642;-62
2021/06/29 03:00:56;;;;;;;;;3.75;2.00;;;;;22.94;49.35;100809.88;5097854;27;46532;-63
2021/06/29 03:03:22;;;;;;;;;2.00;2.00;;;;;22.93;49.08;100802.06;5098036;27;45425;-63
2021/06/29 03:05:47;;;;;;;;;2.00;2.00;;;;;22.95;49.26;100800.16;5098139;27;45400;-64
2021/06/29 03:08:12;;;;;;;;;2.00;2.00;;;;;22.93;49.17;100788.84;5098267;27;45586;-63
2021/06/29 03:10:38;;;;;;;;;2.00;2.00;;;;;22.95;48.96;100789.59;5098008;27;45629;-64
2021/06/29 03:13:03;;;;;;;;;1.50;1.00;;;;;22.94;49.08;100785.25;5098047;27;45442;-63
2021/06/29 03:15:29;;;;;;;;;2.25;2.25;;;;;22.95;49.04;100786.94;5098117;27;45356;-63
2021/06/29 03:17:54;;;;;;;;;2.00;2.00;;;;;22.94;48.93;100790.53;5098173;27;45560;-61
2021/06/29 03:20:20;;;;;;;;;2.00;0.50;;;;;22.92;49.29;100785.34;5097548;27;45278;-64
2021/06/29 03:22:46;;;;;;;;;2.00;1.75;;;;;22.91;48.91;100777.50;5097725;27;45346;-61
2021/06/29 03:25:12;;;;;;;;;2.00;2.00;;;;;22.93;49.09;100780.91;5097851;27;45243;-63
2021/06/29 03:27:38;;;;;;;;;3.25;1.50;;;;;22.93;49.07;100775.63;5098138;27;45604;-58
2021/06/29 03:30:07;;;;;;;;;1.00;1.00;;;;;22.92;49.05;100773.94;5096475;27;46596;-60
2021/06/29 03:32:32;;;;;;;;;1.75;1.75;;;;;22.92;48.97;100773.94;5097224;27;45731;-55
2021/06/29 03:34:58;;;;;;;;;3.25;2.00;;;;;22.90;49.29;100771.41;5097737;27;45322;-51
2021/06/29 03:37:23;;;;;;;;;2.75;1.75;;;;;22.92;48.94;100773.94;5097863;27;45365;-51
2021/06/29 03:39:48;;;;;;;;;3.25;2.00;;;;;22.92;48.78;100779.22;5097292;27;45559;-55
2021/06/29 03:42:14;;;;;;;;;1.75;1.75;;;;;22.92;48.67;100780.06;5097430;27;45322;-54
2021/06/29 03:44:39;;;;;;;;;2.00;2.00;;;;;22.92;48.84;100769.50;5097753;27;45361;-50
2021/06/29 03:47:04;;;;;;;;;2.00;2.00;;;;;22.92;48.84;100774.78;5096266;27;45641;-47
2021/06/29 03:49:30;;;;;;;;;3.00;3.00;;;;;22.92;48.72;100772.16;5097302;27;45523;-48
2021/06/29 03:51:56;;;;;;;;;1.00;1.00;;;;;22.91;48.62;100767.81;5096247;27;45425;-49
2021/06/29 03:54:22;;;;;;;;;2.00;2.00;;;;;22.92;49.24;100768.63;5097449;27;45322;-49
2021/06/29 03:56:48;;;;;;;;;1.00;1.00;;;;;22.91;48.88;100780.16;5097520;27;45580;-51
2021/06/29 03:59:13;;;;;;;;;1.75;1.75;;;;;22.90;48.77;100768.75;5097233;27;46015;-50
2021/06/29 04:01:38;;;;;;;;;1.25;1.25;;;;;22.91;48.44;100769.59;5097457;27;45395;-59
2021/06/29 04:04:04;;;;;;;;;1.75;1.75;;;;;22.91;48.51;100777.50;5097180;27;45426;-60
2021/06/29 04:06:32;;;;;;;;;1.75;1.00;;;;;22.89;48.66;100780.28;5097243;27;45223;-63
2021/06/29 04:08:58;;;;;;;;;2.00;2.00;;;;;22.89;48.86;100780.28;5096935;27;45500;-63
2021/06/29 04:11:26;;;;;;;;;3.00;2.00;;;;;22.89;48.83;100776.75;5096774;27;45711;-64
2021/06/29 04:13:53;;;;;;;;;2.00;2.00;;;;;22.89;48.63;100782.06;5129236;27;45453;-51
2021/06/29 04:16:19;;;;;;;;;1.00;1.00;;;;;22.85;48.78;100784.91;5097183;27;45473;-54
2021/06/29 04:18:45;;;;;;;;;2.25;1.25;;;;;22.87;48.51;100783.97;5095355;27;46135;-52
2021/06/29 04:21:11;;;;;;;;;1.25;1.25;;;;;22.87;48.92;100776.03;5097227;27;45235;-56
2021/06/29 04:23:36;;;;;;;;;1.75;1.75;;;;;22.87;48.73;100781.31;5096818;27;45390;-61
2021/06/29 04:26:02;;;;;;;;;2.00;2.00;;;;;22.85;48.60;100768.19;5097063;27;45674;-63
2021/06/29 04:28:28;;;;;;;;;1.50;1.50;;;;;22.84;48.68;100769.16;5096661;27;46164;-63
2021/06/29 04:30:54;;;;;;;;;2.00;2.00;;;;;22.84;48.90;100766.50;5096652;27;45405;-62
2021/06/29 04:33:19;;;;;;;;;3.00;2.00;;;;;22.85;48.76;100769.06;5096765;27;45329;-57
2021/06/29 04:35:45;;;;;;;;;3.00;1.25;;;;;22.83;48.41;100768.31;5096843;27;45572;-59
2021/06/29 04:38:10;;;;;;;;;1.50;1.00;;;;;22.84;48.75;100777.06;5096765;27;46149;-59
2021/06/29 04:40:36;;;;;;;;;1.00;1.00;;;;;22.82;48.56;100771.91;5096453;27;45507;-61
2021/06/29 04:43:01;;;;;;;;;1.50;1.50;;;;;22.79;48.57;100764.16;5096770;27;45462;-60
2021/06/29 04:45:27;;;;;;;;;4.00;3.00;;;;;22.78;48.63;100762.47;5096733;27;45256;-63
2021/06/29 04:47:54;;;;;;;;;2.00;2.00;;;;;22.77;48.59;100765.22;5096513;27;46973;-60
2021/06/29 04:50:21;;;;;;;;;1.00;1.00;;;;;22.76;48.78;100764.38;5096555;27;45664;-62
2021/06/29 04:52:47;;;;;;;;;2.00;2.00;;;;;22.74;48.54;100763.63;5096697;27;45437;-61
2021/06/29 04:55:13;;;;;;;;;2.00;2.00;;;;;22.72;48.55;100762.88;5097044;27;45618;-62
2021/06/29 04:57:39;;;;;;;;;1.50;1.00;;;;;22.72;48.89;100762.03;5096602;27;46416;-59
2021/06/29 05:00:07;;;;;;;;;2.00;1.00;;;;;22.70;48.69;100764.78;5096328;27;45395;-54
2021/06/29 05:02:33;;;;;;;;;2.00;2.00;;;;;22.67;48.61;100757.91;5097888;27;45265;-62
2021/06/29 05:04:59;;;;;;;;;2.00;2.00;;;;;22.65;49.01;100756.31;5100108;27;45535;-47
2021/06/29 05:07:24;;;;;;;;;1.25;1.25;;;;;22.66;48.74;100769.41;5099726;27;46076;-47
2021/06/29 05:09:49;;;;;;;;;4.50;1.75;;;;;22.67;48.94;100775.53;5099601;27;45342;-59
2021/06/29 05:12:15;;;;;;;;;1.00;1.00;;;;;22.68;48.76;100780.75;5133140;27;45348;-49
2021/06/29 05:14:41;;;;;;;;;1.25;1.25;;;;;22.68;48.93;100767.53;5100348;27;45535;-49
2021/06/29 05:17:06;;;;;;;;;2.00;2.00;;;;;22.71;48.61;100777.03;5099551;27;45943;-47
2021/06/29 05:19:31;;;;;;;;;2.00;2.00;;;;;22.71;48.81;100782.31;5099341;27;45418;-63
2021/06/29 05:21:57;;;;;;;;;1.25;1.25;;;;;22.74;48.62;100789.19;5099824;27;45365;-46
2021/06/29 05:24:22;;;;;;;;;2.00;2.00;;;;;22.74;48.95;100798.00;5099589;27;45247;-47
2021/06/29 05:26:47;;;;;;;;;2.75;1.00;;;;;22.75;48.89;100793.53;5099224;27;48809;-50
2021/06/29 05:29:13;;;;;;;;;3.75;2.50;;;;;22.77;48.65;100797.75;5099725;27;45393;-47
2021/06/29 05:31:38;;;;;;;;;1.75;1.75;;;;;22.77;48.81;100797.75;5099654;27;45442;-51
2021/06/29 05:34:04;;;;;;;;;1.25;1.25;;;;;22.78;48.95;100794.19;5099600;27;45299;-61
2021/06/29 05:36:29;;;;;;;;;1.50;1.00;;;;;22.80;48.66;100797.56;5097976;27;45966;-63
2021/06/29 05:38:54;;;;;;;;;2.00;2.00;;;;;22.81;48.69;100801.91;5097572;27;45568;-51
2021/06/29 05:41:20;;;;;;;;;2.00;2.00;;;;;22.80;48.37;100796.75;5099508;27;45359;-50
2021/06/29 05:43:45;;;;;;;;;1.75;1.75;;;;;22.81;48.67;100804.56;5099785;27;45576;-47
2021/06/29 05:46:13;;;;;;;;;2.00;2.00;;;;;22.80;48.33;100808.13;5099288;27;46463;-47
2021/06/29 05:48:38;;;;;;;;;4.00;2.00;;;;;22.82;48.57;100811.53;5099085;27;45397;-47
2021/06/29 05:51:04;;;;;;;;;2.00;2.00;;;;;22.83;48.58;100809.72;5099271;27;45432;-60
2021/06/29 05:53:30;;;;;;;;;1.00;1.00;;;;;22.82;48.73;100811.53;5099371;27;45171;-62
2021/06/29 05:55:55;;;;;;;;;3.00;1.75;;;;;22.83;48.46;100818.53;5099073;27;45558;-59
2021/06/29 05:58:21;;;;;;;;;1.00;1.00;;;;;22.84;48.55;100814.06;5098933;27;45315;-49
2021/06/29 06:00:46;;;;;;;;;3.00;1.25;;;;;22.83;48.42;100813.22;5099357;27;45562;-58
2021/06/29 06:03:11;;;;;;;;;2.00;2.00;;;;;22.83;48.61;100817.66;5099563;27;45559;-63
2021/06/29 06:05:37;;;;;;;;;3.00;3.00;;;;;22.85;48.66;100824.56;5098755;27;46037;-62
2021/06/29 06:08:02;;;;;;;;;1.50;1.50;;;;;22.85;48.48;100829.84;5098857;27;45318;-62
2021/06/29 06:10:28;;;;;;;;;2.00;2.00;;;;;22.84;48.60;100825.50;5098937;27;45310;-49
2021/06/29 06:12:53;;;;;;;;;3.50;2.00;;;;;22.84;48.53;100825.50;5099052;27;45322;-52
2021/06/29 06:15:19;;;;;;;;;2.00;2.00;;;;;22.83;48.41;100822.94;5098024;27;46415;-47
2021/06/29 06:17:44;;;;;;;;;1.75;1.75;;;;;22.86;48.56;100828.03;5097676;27;45659;-49
2021/06/29 06:20:10;;;;;;;;;2.25;2.25;;;;;22.87;48.84;100837.66;5098868;27;45366;-47
2021/06/29 06:22:36;;;;;;;;;1.75;1.75;;;;;22.87;48.60;100835.00;5098994;27;45312;-47
2021/06/29 06:25:01;;;;;;;;;2.00;2.00;;;;;22.87;48.51;100837.66;5098550;27;45256;-51
2021/06/29 06:27:27;;;;;;;;;1.00;1.00;;;;;22.87;48.42;100835.00;5097275;27;46129;-53
2021/06/29 06:29:52;;;;;;;;;2.75;1.00;;;;;22.89;48.73;100833.13;5097301;27;45211;-50
2021/06/29 06:32:18;;;;;;;;;2.00;2.00;;;;;22.89;48.52;100835.75;5099074;27;45350;-51
2021/06/29 06:34:43;;;;;;;;;2.25;2.25;;;;;22.91;48.79;100839.16;5098511;27;46149;-48
2021/06/29 06:37:08;;;;;;;;;2.00;2.00;;;;;22.91;48.49;100833.88;5098553;27;45365;-54
2021/06/29 06:39:34;;;;;;;;;2.00;1.00;;;;;22.91;48.36;100833.00;5097819;27;45165;-61
2021/06/29 06:42:00;;;;;;;;;2.75;1.50;;;;;22.91;48.66;100830.38;5098674;27;45347;-61
2021/06/29 06:44:25;;;;;;;;;2.75;2.75;;;;;22.92;48.44;100830.28;5098022;27;46176;-59
2021/06/29 06:46:51;;;;;;;;;1.00;1.00;;;;;22.92;48.67;100832.94;5098227;27;45256;-63
2021/06/29 06:49:16;;;;;;;;;1.25;1.00;;;;;22.94;48.94;100832.81;5098716;27;45375;-62
2021/06/29 06:51:42;;;;;;;;;0.00;0.00;;;;;22.92;48.89;100832.94;5098322;27;45294;-47
2021/06/29 06:54:08;;;;;;;;;1.25;1.25;;;;;22.93;48.59;100829.31;5098081;27;46670;-47
2021/06/29 06:56:33;;;;;;;;;3.00;3.00;;;;;22.95;48.69;100829.22;5098105;27;45384;-46
2021/06/29 06:58:59;;;;;;;;;3.75;2.00;;;;;22.94;48.76;100838.09;5098274;27;45357;-48
2021/06/29 07:01:24;;;;;;;;;2.00;2.00;;;;;22.95;49.09;100837.16;5098470;27;45302;-49
2021/06/29 07:03:49;;;;;;;;;5.50;3.50;;;;;22.95;49.06;100838.00;5098059;27;45358;-49
2021/06/29 07:06:15;;;;;;;;;2.00;2.00;;;;;22.96;48.89;100846.78;5098332;27;45289;-50
2021/06/29 07:08:42;;;;;;;;;1.50;1.50;;;;;22.95;49.14;100838.00;5098193;27;45853;-52
2021/06/29 07:11:07;;;;;;;;;3.00;2.00;;;;;22.96;48.70;100836.22;5099548;27;45438;-53
2021/06/29 07:13:34;;;;;;;;;1.50;1.50;;;;;22.96;48.94;100841.50;5097832;27;46065;-50
2021/06/29 07:15:59;;;;;;;;;2.00;2.00;;;;;22.96;48.72;100850.25;5097878;27;45245;-52
2021/06/29 07:18:24;;;;;;;;;2.00;2.00;;;;;22.96;48.95;100846.78;5098047;27;45242;-61
2021/06/29 07:20:50;;;;;;;;;3.75;2.00;;;;;22.96;49.25;100844.16;5098399;27;45571;-52
2021/06/29 07:23:17;;;;;;;;;2.00;2.00;;;;;22.95;49.38;100853.84;5097960;27;46527;-55
2021/06/29 07:25:42;;;;;;;;;2.00;2.00;;;;;22.94;49.45;100852.16;5097798;27;45816;-49
2021/06/29 07:28:08;;;;;;;;;2.25;2.25;;;;;22.92;48.94;100851.44;5097961;27;45313;-51
2021/06/29 07:30:36;;;;;;;;;4.00;3.00;;;;;22.96;49.18;100857.34;5097978;27;45353;-59
2021/06/29 07:33:03;;;;;;;;;2.00;2.00;;;;;22.96;49.21;100849.44;5097622;27;45326;-56
2021/06/29 07:35:30;;;;;;;;;3.50;2.50;;;;;22.97;49.37;100851.97;5097638;27;45682;-55
2021/06/29 07:37:56;;;;;;;;;3.00;2.00;;;;;22.97;49.17;100851.13;5097659;27;45323;-61
2021/06/29 07:40:22;;;;;;;;;2.25;2.00;;;;;22.97;49.10;100848.47;5097711;27;45564;-49
2021/06/29 07:42:47;;;;;;;;;4.75;4.00;;;;;22.97;49.26;100857.25;5097716;27;46044;-60
2021/06/29 07:45:13;;;;;;;;;2.25;2.25;;;;;22.97;49.34;100854.59;5097458;27;45481;-60
2021/06/29 07:47:39;;;;;;;;;4.75;3.00;;;;;22.95;49.27;100847.72;5097505;27;45302;-61
2021/06/29 07:50:07;;;;;;;;;2.00;2.00;;;;;22.98;49.30;100856.31;5097554;27;45520;-59
2021/06/29 07:52:34;;;;;;;;;5.00;2.00;;;;;22.99;49.20;100854.50;5097130;27;46284;-61
2021/06/29 07:54:59;;;;;;;;;5.50;3.00;;;;;22.97;49.28;100845.84;5097196;27;45331;-50
2021/06/29 07:57:24;;;;;;;;;2.25;2.00;;;;;22.97;49.02;100856.41;5097356;27;45315;-52
2021/06/29 07:59:50;;;;;;;;;2.50;2.00;;;;;22.98;49.20;100848.38;5097892;27;45477;-53
2021/06/29 08:02:15;;;;;;;;;1.00;1.00;;;;;23.01;49.41;100852.59;5095713;27;46176;-52
2021/06/29 08:04:42;;;;;;;;;2.50;2.00;;;;;23.01;49.27;100856.09;5097104;27;45237;-50
2021/06/29 08:07:08;;;;;;;;;2.00;2.00;;;;;23.01;49.46;100855.25;5097312;27;45793;-55
2021/06/29 08:09:33;;;;;;;;;4.50;3.00;;;;;23.02;49.24;100859.59;5097319;27;45533;-60
2021/06/29 08:11:58;;;;;;;;;4.00;2.50;;;;;23.03;49.22;100860.44;5095401;27;45299;-61
2021/06/29 08:14:24;;;;;;;;;2.25;2.00;;;;;23.03;49.23;100858.63;5096855;27;45419;-51
2021/06/29 08:16:50;;;;;;;;;3.25;3.00;;;;;23.02;49.30;100862.22;5097464;27;45392;-61
2021/06/29 08:19:16;;;;;;;;;2.00;2.00;;;;;23.05;49.23;100863.81;5097198;27;45240;-57
2021/06/29 08:21:42;;;;;;;;;2.00;2.00;;;;;23.05;49.41;100862.03;5129707;27;46537;-62
2021/06/29 08:24:07;;;;;;;;;3.50;2.00;;;;;23.05;49.29;100866.47;5096845;27;45318;-59
2021/06/29 08:26:33;;;;;;;;;4.00;3.00;;;;;23.04;49.08;100865.63;5095622;27;45397;-50
2021/06/29 08:28:58;;;;;;;;;3.00;3.00;;;;;23.04;49.26;100867.44;5097067;27;45311;-56
2021/06/29 08:31:24;;;;;;;;;2.25;2.00;;;;;23.05;49.01;100864.69;5096785;27;49685;-58
2021/06/29 08:33:53;;;;;;;;;2.00;2.00;;;;;23.05;49.30;100867.31;5096902;27;45622;-60
2021/06/29 08:36:19;;;;;;;;;2.00;1.50;;;;;23.07;49.08;100867.22;5096937;27;45344;-60
2021/06/29 08:38:44;;;;;;;;;1.00;1.00;;;;;23.06;49.16;100869.03;5100201;27;45631;-61
2021/06/29 08:41:11;;;;;;;;;3.00;3.00;;;;;23.08;49.10;100869.78;5100218;27;45349;-56
2021/06/29 08:43:38;;;;;;;;;2.00;2.00;;;;;23.08;49.07;100864.50;5100259;27;45472;-54
2021/06/29 08:46:03;;;;;;;;;2.00;2.00;;;;;23.08;49.01;100867.13;5100522;27;45314;-60
2021/06/29 08:48:28;;;;;;;;;3.75;1.25;;;;;23.09;49.07;100870.59;5100318;27;45446;-52
2021/06/29 08:50:54;;;;;;;;;4.50;2.00;;;;;23.09;49.13;100860.91;5100258;27;45949;-59
2021/06/29 08:53:19;;;;;;;;;4.00;2.00;;;;;23.10;48.97;100864.38;5100136;27;45290;-53
2021/06/29 08:55:47;;;;;;;;;2.00;2.00;;;;;23.10;49.32;100859.91;5100281;27;45429;-59
2021/06/29 08:58:17;;;;;;;;;2.00;2.00;;;;;23.10;49.39;100862.56;5100060;27;45585;-58
2021/06/29 09:00:42;;;;;;;;;1.00;1.00;;;;;23.10;48.96;100854.63;5100052;27;46206;-61
2021/06/29 09:03:08;;;;;;;;;4.00;2.50;;;;;23.08;48.95;100856.56;5099881;27;45225;-58
2021/06/29 09:05:33;;;;;;;;;3.00;2.00;;;;;23.12;48.86;100860.66;5099948;27;45172;-60
2021/06/29 09:08:07;;;;;;;;;1.00;1.00;;;;;23.13;49.21;100862.38;5100061;27;45290;-60
2021/06/29 09:10:35;;;;;;;;;4.00;3.00;;;;;23.11;49.02;100850.22;5099905;27;46124;-58
2021/06/29 09:13:01;;;;;;;;;2.00;1.00;;;;;23.13;48.85;100859.72;5099734;27;45605;-56
2021/06/29 09:15:32;;;;;;;;;1.00;1.00;;;;;23.15;48.93;100865.78;5099899;27;45235;-58
2021/06/29 09:18:04;;;;;;;;;2.00;2.00;;;;;23.14;48.88;100860.59;5098718;27;45362;-59
2021/06/29 09:20:32;;;;;;;;;2.00;2.00;;;;;23.15;48.99;100860.47;5099603;27;46364;-60
2021/06/29 09:23:06;;;;;;;;;2.25;2.00;;;;;23.14;48.78;100861.44;5099558;27;45367;-52
2021/06/29 09:25:32;;;;;;;;;1.75;1.00;;;;;23.15;49.13;100857.84;5099752;27;45325;-59
2021/06/29 09:27:57;;;;;;;;;2.00;2.00;;;;;23.16;48.97;100861.31;5099793;27;45241;-59
2021/06/29 09:30:45;;;;;;;;;3.00;3.00;;;;;23.16;49.01;100862.19;5099709;27;47017;-60
2021/06/29 09:33:20;;;;;;;;;1.25;1.00;;;;;23.17;49.00;100849.78;5099485;27;45716;-61
2021/06/29 09:35:49;;;;;;;;;2.00;2.00;;;;;23.17;48.95;100857.72;5099577;27;45400;-61
2021/06/29 09:38:21;;;;;;;;;2.00;2.00;;;;;23.19;48.95;100852.34;5099671;27;45458;-59
2021/06/29 09:40:54;;;;;;;;;3.50;3.00;;;;;23.18;48.93;100848.84;5099313;27;45440;-65
2021/06/29 09:43:22;;;;;;;;;3.50;2.00;;;;;23.17;48.70;100844.50;5099237;27;45357;-61
2021/06/29 09:45:51;;;;;;;;;2.25;2.25;;;;;23.22;48.94;100849.50;5099674;27;45501;-47
2021/06/29 09:48:27;;;;;;;;;3.00;3.00;;;;;23.24;48.97;100850.25;5098833;27;45417;-52
2021/06/29 09:50:53;;;;;;;;;6.50;5.25;;;;;23.25;49.00;100847.53;5099355;27;47412;-58
2021/06/29 09:53:25;;;;;;;;;20.50;16.00;;;;;23.28;49.21;100846.47;5099045;27;45682;-58
2021/06/29 09:55:57;;;;;;;;;22.00;16.00;;;;;23.29;49.45;100846.38;5097902;27;45338;-58
2021/06/29 09:58:23;;;;;;;;;25.25;19.00;;;;;23.30;49.25;100848.06;5099798;27;45473;-58
2021/06/29 10:00:52;;;;;;;;;36.50;27.00;;;;;23.32;49.42;100845.31;5098807;27;47166;-59
2021/06/29 10:03:22;;;;;;;;;35.25;29.75;;;;;23.33;49.46;100840.88;5098834;27;45234;-58
2021/06/29 10:05:48;;;;;;;;;43.25;33.75;;;;;23.31;49.52;100844.47;5097753;27;45275;-59
2021/06/29 10:08:25;;;;;;;;;44.75;35.25;;;;;23.34;49.26;100839.94;5099170;27;45398;-57
2021/06/29 10:11:13;;;;;;;;;45.50;31.75;;;;;23.35;48.77;100844.28;5098732;27;46219;-57
2021/06/29 10:13:42;;;;;;;;;43.75;30.50;;;;;23.35;48.60;100841.63;5098823;27;45873;-57
2021/06/29 10:16:09;;;;;;;;;44.50;35.50;;;;;23.34;48.96;100843.41;5098826;27;45333;-57
2021/06/29 10:18:39;;;;;;;;;37.00;30.25;;;;;23.33;48.32;100841.72;5098997;27;45449;-58
2021/06/29 10:21:24;;;;;;;;;27.00;21.75;;;;;23.33;48.20;100839.06;5098637;27;47577;-56
2021/06/29 10:23:55;;;;;;;;;31.50;25.00;;;;;23.34;48.34;100839.94;5098799;27;45334;-57
2021/06/29 10:26:23;;;;;;;;;24.75;22.75;;;;;23.34;47.98;100842.56;5098687;27;45308;-55
2021/06/29 10:28:50;;;;;;;;;23.25;20.25;;;;;23.35;48.22;100842.47;5132176;27;45374;-56
2021/06/29 10:31:27;;;;;;;;;11.00;10.75;;;;;23.35;47.64;100838.97;5098404;27;46307;-55
2021/06/29 10:33:55;;;;;;;;;11.75;10.25;;;;;23.33;47.56;100835.59;5098382;27;45763;-55
2021/06/29 10:36:22;;;;;;;;;14.00;11.00;;;;;23.34;47.48;100832.81;5098684;27;45259;-57
2021/06/29 10:38:48;;;;;;;;;8.75;7.25;;;;;23.32;46.85;100834.72;5131761;27;45533;-57
2021/06/29 10:41:16;;;;;;;;;10.50;8.00;;;;;23.34;47.12;100837.28;5098368;27;47212;-58
2021/06/29 10:43:42;;;;;;;;;7.75;5.25;;;;;23.35;47.14;100831.88;5098419;27;45712;-60
2021/06/29 10:46:39;;;;;;;;;7.00;5.00;;;;;23.34;47.00;100829.34;5098536;27;45392;-59
2021/06/29 10:49:31;;;;;;;;;6.00;4.75;;;;;23.33;46.80;100833.78;5098692;27;45369;-59
2021/06/29 10:51:59;;;;;;;;;4.75;4.75;;;;;23.34;47.02;100830.19;5098402;27;45321;-60
2021/06/29 10:54:46;;;;;;;;;4.25;4.25;;;;;23.33;47.16;100825.84;5098109;27;45786;-60
2021/06/29 10:57:16;;;;;;;;;3.00;3.00;;;;;23.31;46.57;100833.88;5098288;27;45307;-57
2021/06/29 10:59:46;;;;;;;;;6.50;4.50;;;;;23.33;46.75;100825.84;5097785;27;45278;-60
2021/06/29 11:02:15;;;;;;;;;3.50;3.50;;;;;23.30;47.08;100821.63;5097793;27;47169;-58
2021/06/29 11:05:10;;;;;;;;;8.75;5.00;;;;;23.34;46.94;100834.63;5097831;27;45247;-59
2021/06/29 11:07:35;;;;;;;;;4.75;4.00;;;;;23.35;46.68;100837.16;5088966;27;46377;-60
2021/06/29 11:10:06;;;;;;;;;5.00;3.33;;;;;23.35;47.00;100836.34;5097650;27;45564;-57
2021/06/29 11:12:32;;;;;;;;;5.75;4.00;;;;;23.34;46.90;100832.81;5097801;27;46307;-57
2021/06/29 11:15:07;;;;;;;;;4.75;3.75;;;;;23.35;46.76;100833.69;5098119;27;45581;-60
2021/06/29 11:17:52;;;;;;;;;4.75;2.00;;;;;23.36;47.01;100836.22;5130382;27;45401;-59
2021/06/29 11:20:19;;;;;;;;;4.00;4.00;;;;;23.36;46.91;100838.88;5097880;27;45348;-59
2021/06/29 11:22:49;;;;;;;;;4.50;3.00;;;;;23.37;46.63;100834.44;5097630;27;46061;-59
2021/06/29 11:25:15;;;;;;;;;4.25;3.00;;;;;23.35;46.79;100831.88;5097820;27;45448;-59